Time;durP1;ratioP1;P1;durP2;ratioP2;P2;SDS_P1;SDS_P2;PMS_P1;PMS_P2;Temp;Humidity;BMP_temperature;BMP_pressure;BME280_temperature;BME280_humidity;BME280_pressure;Samples;Min_cycle;Max_cycle;Signal;HPM_P1;HPM_P2
2020/12/02 00:02:07;;;;;;;;;;;7.30;99.90;;;;;;5101710;28;19942;-80
2020/12/02 00:04:32;;;;;;;;;;;7.40;99.90;;;;;;5082961;28;19915;-81
2020/12/02 00:06:58;;;;;;;;;;;7.40;99.90;;;;;;5102096;28;19919;-81
2020/12/02 00:09:23;;;;;;;;;;;7.40;99.90;;;;;;5085504;28;19908;-82
2020/12/02 00:11:50;;;;;;;;;;;7.40;99.90;;;;;;5101441;28;19916;-80
2020/12/02 00:14:21;;;;;;;;;;;7.40;99.90;;;;;;5082389;28;19920;-81
2020/12/02 00:16:46;;;;;;;;;;;7.30;99.90;;;;;;5104311;28;19912;-80
2020/12/02 00:19:12;;;;;;;;;;;7.30;99.90;;;;;;5104790;28;19930;-80
2020/12/02 00:21:37;;;;;;;;;;;7.30;99.90;;;;;;5102882;28;19934;-81
2020/12/02 00:24:03;;;;;;;;;;;7.30;99.90;;;;;;5105058;28;19908;-81
2020/12/02 00:26:30;;;;;;;;;;;7.30;99.90;;;;;;5103499;28;19916;-81
2020/12/02 00:28:57;;;;;;;;;;;7.30;99.90;;;;;;5066859;28;19944;-81
2020/12/02 00:31:22;;;;;;;;;;;7.40;99.90;;;;;;5083627;28;19959;-81
2020/12/02 00:33:48;;;;;;;;;;;7.40;99.90;;;;;;5086242;28;19908;-81
2020/12/02 00:36:13;;;;;;;;;;;7.40;99.90;;;;;;5085631;28;20477;-80
2020/12/02 00:38:39;;;;;;;;;;;7.30;99.90;;;;;;5081453;28;19966;-81
2020/12/02 00:41:05;;;;;;;;;;;7.30;99.90;;;;;;5074153;28;19912;-80
2020/12/02 00:43:31;;;;;;;;;;;7.30;99.90;;;;;;5104058;28;20275;-80
2020/12/02 00:45:58;;;;;;;;;;;7.30;99.90;;;;;;5085562;28;19939;-81
2020/12/02 00:48:25;;;;;;;;;;;7.30;99.90;;;;;;5085929;28;19948;-80
2020/12/02 00:50:50;;;;;;;;;;;7.30;99.90;;;;;;5085746;28;19955;-81
2020/12/02 00:53:18;;;;;;;;;;;7.40;99.90;;;;;;5086652;28;20272;-80
2020/12/02 00:55:45;;;;;;;;;;;7.40;99.90;;;;;;5086476;28;19941;-81
2020/12/02 00:58:14;;;;;;;;;;;7.40;99.90;;;;;;5103170;28;19916;-82
2020/12/02 01:00:40;;;;;;;;;;;7.40;99.90;;;;;;5070620;28;19915;-80
2020/12/02 01:03:05;;;;;;;;;;;7.40;99.90;;;;;;5082491;28;19913;-81
2020/12/02 01:05:31;;;;;;;;;;;7.40;99.90;;;;;;5078701;28;19908;-80
2020/12/02 01:08:09;;;;;;;;;;;7.40;99.90;;;;;;5088903;28;19908;-80
2020/12/02 01:10:34;;;;;;;;;;;7.40;99.90;;;;;;5085896;28;19912;-80
2020/12/02 01:13:03;;;;;;;;;;;7.40;99.90;;;;;;5085522;28;19923;-81
2020/12/02 01:15:28;;;;;;;;;;;7.40;99.90;;;;;;5086409;28;19912;-81
2020/12/02 01:18:13;;;;;;;;;;;7.40;99.90;;;;;;5091312;28;19934;-80
2020/12/02 01:20:39;;;;;;;;;;;7.40;99.90;;;;;;5065839;28;19962;-81
2020/12/02 01:23:05;;;;;;;;;;;7.30;99.90;;;;;;5083798;28;20280;-81
2020/12/02 01:25:30;;;;;;;;;;;7.30;99.90;;;;;;5083336;28;19915;-81
2020/12/02 01:28:03;;;;;;;;;;;7.30;99.90;;;;;;5086251;28;19961;-81
2020/12/02 01:30:29;;;;;;;;;;;7.30;99.90;;;;;;5086452;28;19931;-80
2020/12/02 01:32:54;;;;;;;;;;;7.30;99.90;;;;;;5102852;28;19912;-80
2020/12/02 01:35:22;;;;;;;;;;;7.30;99.90;;;;;;5103556;28;19946;-80
2020/12/02 01:37:52;;;;;;;;;;;7.30;99.90;;;;;;5102978;28;19912;-80
2020/12/02 01:40:31;;;;;;;;;;;7.30;99.90;;;;;;5084783;28;19954;-80
2020/12/02 01:43:01;;;;;;;;;;;7.20;99.90;;;;;;5102668;28;19912;-81
2020/12/02 01:45:33;;;;;;;;;;;7.20;99.90;;;;;;5085440;28;19908;-82
2020/12/02 01:48:22;;;;;;;;;;;7.20;99.90;;;;;;5085127;28;19999;-80
2020/12/02 01:50:50;;;;;;;;;;;7.20;99.90;;;;;;5055321;28;20389;-81
2020/12/02 01:53:36;;;;;;;;;;;7.20;99.90;;;;;;5086052;28;19916;-82
2020/12/02 01:56:08;;;;;;;;;;;7.20;99.90;;;;;;5101614;28;19908;-81
2020/12/02 01:58:33;;;;;;;;;;;7.10;99.90;;;;;;5085642;28;19916;-82
2020/12/02 02:01:05;;;;;;;;;;;7.10;99.90;;;;;;5102912;28;19912;-81
2020/12/02 02:03:33;;;;;;;;;;;7.10;99.90;;;;;;5085022;28;19912;-80
2020/12/02 02:06:01;;;;;;;;;;;7.00;99.90;;;;;;5079770;28;19939;-81
2020/12/02 02:08:29;;;;;;;;;;;6.90;99.90;;;;;;5081378;28;19909;-81
2020/12/02 02:10:55;;;;;;;;;;;6.90;99.90;;;;;;5075213;28;19912;-81
2020/12/02 02:13:33;;;;;;;;;;;6.80;99.90;;;;;;5093079;28;19913;-81
2020/12/02 02:16:06;;;;;;;;;;;6.80;99.90;;;;;;5070470;28;19916;-82
2020/12/02 02:18:32;;;;;;;;;;;6.70;99.90;;;;;;5083663;28;19909;-81
2020/12/02 02:20:57;;;;;;;;;;;6.70;99.90;;;;;;5083405;28;19912;-81
2020/12/02 02:23:23;;;;;;;;;;;6.60;99.90;;;;;;5079480;28;19919;-80
2020/12/02 02:25:53;;;;;;;;;;;6.60;99.90;;;;;;5105992;28;19912;-80
2020/12/02 02:28:19;;;;;;;;;;;6.60;99.90;;;;;;5096217;28;20387;-81
2020/12/02 02:30:44;;;;;;;;;;;6.60;99.90;;;;;;5087095;28;19912;-81
2020/12/02 02:33:10;;;;;;;;;;;6.50;99.90;;;;;;5062665;28;20368;-81
2020/12/02 02:35:35;;;;;;;;;;;6.50;99.90;;;;;;5096314;28;19911;-80
2020/12/02 02:38:01;;;;;;;;;;;6.50;99.90;;;;;;5100228;28;19908;-81
2020/12/02 02:40:26;;;;;;;;;;;6.50;99.90;;;;;;5081469;28;19919;-81
2020/12/02 02:42:52;;;;;;;;;;;6.50;99.90;;;;;;5087504;28;19913;-81
2020/12/02 02:45:21;;;;;;;;;;;6.50;99.90;;;;;;5099754;28;20383;-81
2020/12/02 02:47:47;;;;;;;;;;;6.50;99.90;;;;;;5100397;28;19957;-80
2020/12/02 02:50:15;;;;;;;;;;;6.50;99.90;;;;;;5098235;28;19908;-80
2020/12/02 02:52:41;;;;;;;;;;;6.40;99.90;;;;;;5082853;28;19912;-80
2020/12/02 02:55:09;;;;;;;;;;;6.40;99.90;;;;;;5099768;28;19919;-80
2020/12/02 02:57:34;;;;;;;;;;;6.50;99.90;;;;;;5100374;28;19916;-80
2020/12/02 03:00:00;;;;;;;;;;;6.50;99.90;;;;;;5082039;28;19926;-80
2020/12/02 03:02:25;;;;;;;;;;;6.50;99.90;;;;;;5100860;28;19908;-80
2020/12/02 03:04:51;;;;;;;;;;;6.50;99.90;;;;;;5074602;28;19956;-80
2020/12/02 03:07:17;;;;;;;;;;;6.50;99.90;;;;;;5080503;28;19916;-81
2020/12/02 03:09:43;;;;;;;;;;;6.50;99.90;;;;;;5075774;28;19912;-80
2020/12/02 03:12:08;;;;;;;;;;;6.50;99.90;;;;;;5100424;28;19916;-80
2020/12/02 03:14:41;;;;;;;;;;;6.50;99.90;;;;;;5099026;28;19935;-81
2020/12/02 03:17:09;;;;;;;;;;;6.50;99.90;;;;;;5081931;28;19985;-81
2020/12/02 03:19:36;;;;;;;;;;;6.40;99.90;;;;;;5092145;28;19934;-80
2020/12/02 03:22:09;;;;;;;;;;;6.40;99.90;;;;;;5082285;28;19938;-81
2020/12/02 03:24:35;;;;;;;;;;;6.40;99.90;;;;;;5098224;28;19908;-81
2020/12/02 03:27:00;;;;;;;;;;;6.40;99.90;;;;;;5081817;28;19928;-81
2020/12/02 03:29:26;;;;;;;;;;;6.40;99.90;;;;;;5099768;28;19947;-80
2020/12/02 03:31:51;;;;;;;;;;;6.40;99.90;;;;;;5081387;28;19923;-81
2020/12/02 03:34:19;;;;;;;;;;;6.40;99.90;;;;;;5098921;28;20288;-81
2020/12/02 03:36:45;;;;;;;;;;;6.40;99.90;;;;;;5081565;28;19913;-81
2020/12/02 03:39:11;;;;;;;;;;;6.40;99.90;;;;;;5095239;28;20006;-81
2020/12/02 03:41:38;;;;;;;;;;;6.50;99.90;;;;;;5097555;28;19963;-80
2020/12/02 03:44:03;;;;;;;;;;;6.50;99.90;;;;;;5099583;28;19956;-81
2020/12/02 03:46:29;;;;;;;;;;;6.50;99.90;;;;;;5081638;28;19912;-81
2020/12/02 03:48:54;;;;;;;;;;;6.60;99.90;;;;;;5083690;28;20261;-81
2020/12/02 03:51:19;;;;;;;;;;;6.60;99.90;;;;;;5102838;28;19949;-81
2020/12/02 03:53:45;;;;;;;;;;;6.60;99.90;;;;;;5082462;28;19909;-81
2020/12/02 03:56:10;;;;;;;;;;;6.60;99.90;;;;;;5084022;28;19908;-80
2020/12/02 03:58:36;;;;;;;;;;;6.60;99.90;;;;;;5103075;28;19999;-81
2020/12/02 04:01:03;;;;;;;;;;;6.60;99.90;;;;;;5102861;28;20010;-80
2020/12/02 04:03:28;;;;;;;;;;;6.70;99.90;;;;;;5084244;28;20284;-80
2020/12/02 04:05:54;;;;;;;;;;;6.70;99.90;;;;;;5084793;28;19915;-81
2020/12/02 04:08:19;;;;;;;;;;;6.70;99.90;;;;;;5085005;28;19912;-81
2020/12/02 04:10:44;;;;;;;;;;;6.70;99.90;;;;;;5103006;28;19919;-81
2020/12/02 04:13:10;;;;;;;;;;;6.70;99.90;;;;;;5085756;28;19919;-80
2020/12/02 04:15:36;;;;;;;;;;;6.70;99.90;;;;;;5085375;28;19934;-81
2020/12/02 04:18:03;;;;;;;;;;;6.70;99.90;;;;;;5103576;28;20348;-81
2020/12/02 04:20:29;;;;;;;;;;;6.70;99.90;;;;;;5103262;28;19998;-80
2020/12/02 04:22:54;;;;;;;;;;;6.70;99.90;;;;;;5085255;28;19947;-80
2020/12/02 04:25:23;;;;;;;;;;;6.70;99.90;;;;;;5084989;28;19912;-81
2020/12/02 04:27:48;;;;;;;;;;;6.70;99.90;;;;;;5103483;28;19923;-81
2020/12/02 04:30:14;;;;;;;;;;;6.70;99.90;;;;;;5066270;28;19912;-81
2020/12/02 04:32:40;;;;;;;;;;;6.70;99.90;;;;;;5083954;28;19912;-81
2020/12/02 04:35:05;;;;;;;;;;;6.80;99.90;;;;;;5080982;28;19986;-81
2020/12/02 04:37:32;;;;;;;;;;;6.80;99.90;;;;;;5082992;28;19948;-81
2020/12/02 04:39:58;;;;;;;;;;;6.90;99.90;;;;;;5086180;28;19912;-81
2020/12/02 04:42:26;;;;;;;;;;;6.90;99.90;;;;;;5084825;28;19964;-81
2020/12/02 04:44:51;;;;;;;;;;;6.90;99.90;;;;;;5103099;28;19912;-81
2020/12/02 04:47:17;;;;;;;;;;;7.00;99.90;;;;;;5085991;28;19908;-81
2020/12/02 04:49:46;;;;;;;;;;;7.00;99.90;;;;;;5084524;28;19912;-81
2020/12/02 04:52:13;;;;;;;;;;;7.00;99.90;;;;;;5084095;28;19952;-81
2020/12/02 04:54:39;;;;;;;;;;;6.90;99.90;;;;;;5085477;28;19916;-81
2020/12/02 04:57:05;;;;;;;;;;;6.90;99.90;;;;;;5103280;28;19919;-81
2020/12/02 04:59:38;;;;;;;;;;;6.90;99.90;;;;;;5085769;28;19916;-81
2020/12/02 05:02:03;;;;;;;;;;;7.00;99.90;;;;;;5082616;28;19912;-81
2020/12/02 05:04:29;;;;;;;;;;;7.00;99.90;;;;;;5083978;28;20414;-81
2020/12/02 05:07:04;;;;;;;;;;;7.00;99.90;;;;;;5103029;28;19908;-81
2020/12/02 05:09:30;;;;;;;;;;;7.00;99.90;;;;;;5085270;28;19987;-81
2020/12/02 05:11:55;;;;;;;;;;;7.00;99.90;;;;;;5084334;28;19920;-81
2020/12/02 05:14:21;;;;;;;;;;;7.00;99.90;;;;;;5098942;28;19962;-81
2020/12/02 05:16:59;;;;;;;;;;;6.90;99.90;;;;;;5101371;28;19934;-81
2020/12/02 05:19:24;;;;;;;;;;;6.90;99.90;;;;;;5099202;28;19912;-81
2020/12/02 05:21:50;;;;;;;;;;;6.80;99.90;;;;;;5101562;28;19919;-81
2020/12/02 05:24:17;;;;;;;;;;;6.80;99.90;;;;;;5104303;28;19917;-82
2020/12/02 05:26:47;;;;;;;;;;;6.70;99.90;;;;;;5085671;28;19912;-81
2020/12/02 05:29:22;;;;;;;;;;;6.70;99.90;;;;;;5102946;28;19912;-82
2020/12/02 05:31:48;;;;;;;;;;;6.70;99.90;;;;;;5104006;28;19912;-81
2020/12/02 05:34:14;;;;;;;;;;;6.70;99.90;;;;;;5086347;28;19908;-81
2020/12/02 05:36:43;;;;;;;;;;;6.70;99.90;;;;;;5086010;28;19912;-81
2020/12/02 05:39:27;;;;;;;;;;;6.70;99.90;;;;;;5105685;28;19916;-81
2020/12/02 05:41:54;;;;;;;;;;;6.60;99.90;;;;;;5104318;28;19957;-80
2020/12/02 05:44:21;;;;;;;;;;;6.60;99.90;;;;;;5093863;28;19920;-81
2020/12/02 05:46:49;;;;;;;;;;;6.60;99.90;;;;;;5084186;28;19987;-81
2020/12/02 05:49:26;;;;;;;;;;;6.60;99.90;;;;;;5082842;28;19927;-81
2020/12/02 05:51:51;;;;;;;;;;;6.60;99.90;;;;;;5102121;28;19912;-82
2020/12/02 05:54:19;;;;;;;;;;;6.60;99.90;;;;;;5095226;28;19919;-81
2020/12/02 05:56:44;;;;;;;;;;;6.60;99.90;;;;;;5102194;28;19912;-81
2020/12/02 05:59:10;;;;;;;;;;;6.50;99.90;;;;;;5101642;28;19916;-81
2020/12/02 06:01:35;;;;;;;;;;;6.50;99.90;;;;;;5071567;28;19951;-82
2020/12/02 06:04:02;;;;;;;;;;;6.50;99.90;;;;;;5082025;28;19916;-81
2020/12/02 06:06:30;;;;;;;;;;;6.50;99.90;;;;;;5081502;28;19920;-81
2020/12/02 06:08:57;;;;;;;;;;;6.60;99.90;;;;;;5102162;28;20037;-81
2020/12/02 06:11:24;;;;;;;;;;;6.60;99.90;;;;;;5078365;28;20310;-81
2020/12/02 06:13:53;;;;;;;;;;;6.70;99.90;;;;;;5089608;28;19919;-82
2020/12/02 06:16:24;;;;;;;;;;;6.70;99.90;;;;;;5064547;28;19913;-82
2020/12/02 06:18:50;;;;;;;;;;;6.80;99.90;;;;;;5073641;28;19915;-82
2020/12/02 06:21:48;;;;;;;;;;;6.80;99.90;;;;;;5084591;28;19912;-82
2020/12/02 06:24:25;;;;;;;;;;;6.80;99.90;;;;;;5050539;28;19954;-81
2020/12/02 06:26:50;;;;;;;;;;;6.80;99.90;;;;;;5084233;28;19908;-82
2020/12/02 06:29:25;;;;;;;;;;;6.80;99.90;;;;;;5084083;28;19930;-83
2020/12/02 06:31:55;;;;;;;;;;;6.80;99.90;;;;;;5102168;28;19919;-81
2020/12/02 06:34:22;;;;;;;;;;;6.90;99.90;;;;;;5083470;28;19914;-83
2020/12/02 06:37:00;;;;;;;;;;;6.90;99.90;;;;;;5084595;28;19919;-81
2020/12/02 06:39:27;;;;;;;;;;;6.90;99.90;;;;;;5102018;28;19930;-82
2020/12/02 06:41:52;;;;;;;;;;;6.90;99.90;;;;;;5101306;28;19908;-82
2020/12/02 06:44:30;;;;;;;;;;;6.90;99.90;;;;;;5101876;28;19942;-82
2020/12/02 06:46:55;;;;;;;;;;;6.90;99.90;;;;;;5102702;28;19908;-81
2020/12/02 06:49:21;;;;;;;;;;;6.90;99.90;;;;;;5101892;28;19908;-82
2020/12/02 06:51:56;;;;;;;;;;;6.90;99.90;;;;;;5082030;28;20012;-81
2020/12/02 06:54:22;;;;;;;;;;;7.00;99.90;;;;;;5080200;28;19916;-82
2020/12/02 06:56:52;;;;;;;;;;;7.00;99.90;;;;;;5080324;28;19912;-82
2020/12/02 06:59:17;;;;;;;;;;;7.00;99.90;;;;;;5099717;28;20342;-82
2020/12/02 07:01:43;;;;;;;;;;;7.00;99.90;;;;;;5100326;28;19908;-82
2020/12/02 07:04:15;;;;;;;;;;;7.00;99.90;;;;;;5081797;28;20276;-82
2020/12/02 07:06:40;;;;;;;;;;;7.00;99.90;;;;;;5079439;28;19915;-81
2020/12/02 07:09:07;;;;;;;;;;;7.00;99.90;;;;;;5097604;28;19912;-82
2020/12/02 07:11:32;;;;;;;;;;;7.00;99.90;;;;;;5096959;28;19912;-82
2020/12/02 07:14:12;;;;;;;;;;;7.00;99.90;;;;;;5098193;28;19931;-82
2020/12/02 07:16:37;;;;;;;;;;;6.90;99.90;;;;;;5099303;28;20368;-82
2020/12/02 07:19:04;;;;;;;;;;;7.00;99.90;;;;;;5081464;28;19916;-82
2020/12/02 07:21:33;;;;;;;;;;;7.00;99.90;;;;;;5099274;28;19908;-81
2020/12/02 07:23:59;;;;;;;;;;;7.00;99.90;;;;;;5082366;28;19984;-81
2020/12/02 07:26:25;;;;;;;;;;;7.00;99.90;;;;;;5101180;28;20376;-81
2020/12/02 07:29:11;;;;;;;;;;;7.00;99.90;;;;;;5097234;28;19920;-80
2020/12/02 07:31:36;;;;;;;;;;;7.00;99.90;;;;;;5076430;28;20046;-81
2020/12/02 07:34:10;;;;;;;;;;;7.00;99.90;;;;;;5079045;28;19977;-81
2020/12/02 07:36:36;;;;;;;;;;;7.00;99.90;;;;;;5079381;28;19933;-81
2020/12/02 07:39:08;;;;;;;;;;;7.00;99.90;;;;;;5079411;28;19959;-81
2020/12/02 07:41:34;;;;;;;;;;;7.00;99.90;;;;;;5079446;28;19915;-81
2020/12/02 07:44:00;;;;;;;;;;;7.10;99.90;;;;;;5097842;28;19908;-81
2020/12/02 07:46:26;;;;;;;;;;;7.10;99.90;;;;;;5097236;28;20318;-81
2020/12/02 07:48:53;;;;;;;;;;;7.10;99.90;;;;;;5096782;28;19908;-81
2020/12/02 07:53:51;;;;;;;;;;;7.10;99.90;;;;;;5078494;28;19924;-83
2020/12/02 07:56:26;;;;;;;;;;;7.10;99.90;;;;;;5079468;28;19912;-83
2020/12/02 07:58:54;;;;;;;;;;;7.10;99.90;;;;;;5080254;28;19981;-82
2020/12/02 08:01:32;;;;;;;;;;;7.00;99.90;;;;;;5078704;28;19919;-83
2020/12/02 08:04:10;;;;;;;;;;;7.10;99.90;;;;;;5058515;28;19917;-83
2020/12/02 08:06:45;;;;;;;;;;;7.10;99.90;;;;;;5025453;28;19920;-82
2020/12/02 08:09:10;;;;;;;;;;;7.00;99.90;;;;;;5051323;28;20383;-83
2020/12/02 08:11:46;;;;;;;;;;;7.10;99.90;;;;;;5064167;28;19970;-83
2020/12/02 08:14:17;;;;;;;;;;;7.10;99.90;;;;;;5049210;28;19913;-82
2020/12/02 08:16:43;;;;;;;;;;;7.10;99.90;;;;;;5041960;28;19935;-83
2020/12/02 08:19:11;;;;;;;;;;;7.10;99.90;;;;;;5056260;28;19917;-83
2020/12/02 08:21:37;;;;;;;;;;;7.10;99.90;;;;;;5064818;28;19912;-83
2020/12/02 08:24:21;;;;;;;;;;;7.10;99.90;;;;;;5075388;28;19981;-84
2020/12/02 08:26:49;;;;;;;;;;;7.10;99.90;;;;;;5089615;28;19905;-83
2020/12/02 08:29:19;;;;;;;;;;;7.10;99.90;;;;;;5067936;28;19917;-83
2020/12/02 08:31:45;;;;;;;;;;;7.20;99.90;;;;;;5067412;28;19951;-83
2020/12/02 08:34:15;;;;;;;;;;;7.20;99.90;;;;;;5073430;28;19975;-83
2020/12/02 08:36:51;;;;;;;;;;;7.20;99.90;;;;;;5065692;28;19913;-84
2020/12/02 08:39:30;;;;;;;;;;;7.20;99.90;;;;;;5051344;28;19913;-84
2020/12/02 08:41:55;;;;;;;;;;;7.30;99.90;;;;;;5045290;28;19952;-84
2020/12/02 08:44:21;;;;;;;;;;;7.30;99.90;;;;;;5046734;28;19920;-84
2020/12/02 08:46:46;;;;;;;;;;;7.30;99.90;;;;;;5064558;28;19920;-83
2020/12/02 08:49:12;;;;;;;;;;;7.40;99.90;;;;;;5062998;28;19980;-85
2020/12/02 08:51:38;;;;;;;;;;;7.40;99.90;;;;;;5066106;28;19980;-84
2020/12/02 08:54:23;;;;;;;;;;;7.30;99.90;;;;;;5065732;28;19927;-83
2020/12/02 08:56:49;;;;;;;;;;;7.30;99.90;;;;;;5061770;28;19917;-84
2020/12/02 08:59:15;;;;;;;;;;;7.30;99.90;;;;;;5071083;28;19913;-84
2020/12/02 09:01:40;;;;;;;;;;;7.20;99.90;;;;;;5058608;28;19913;-84
2020/12/02 09:04:06;;;;;;;;;;;7.20;99.90;;;;;;5068331;28;19913;-84
2020/12/02 09:06:32;;;;;;;;;;;7.20;99.90;;;;;;5065130;28;19909;-84
2020/12/02 09:08:57;;;;;;;;;;;7.10;99.90;;;;;;5076917;28;20358;-84
2020/12/02 09:11:24;;;;;;;;;;;7.20;99.90;;;;;;5080953;28;19912;-84
2020/12/02 09:13:50;;;;;;;;;;;7.20;99.90;;;;;;5062308;28;19912;-84
2020/12/02 09:16:20;;;;;;;;;;;7.20;99.90;;;;;;5067718;28;19909;-85
2020/12/02 09:18:46;;;;;;;;;;;7.10;99.90;;;;;;5062386;28;19951;-84
2020/12/02 09:21:11;;;;;;;;;;;7.20;99.90;;;;;;5064893;28;19919;-84
2020/12/02 09:23:37;;;;;;;;;;;7.20;99.90;;;;;;5061797;28;19912;-83
2020/12/02 09:26:02;;;;;;;;;;;7.30;99.90;;;;;;5050253;28;19913;-85
2020/12/02 09:28:28;;;;;;;;;;;7.30;99.90;;;;;;5060461;28;19913;-84
2020/12/02 09:30:53;;;;;;;;;;;7.40;99.90;;;;;;5064079;28;19913;-84
2020/12/02 09:33:18;;;;;;;;;;;7.50;99.90;;;;;;5055059;28;19917;-84
2020/12/02 09:35:44;;;;;;;;;;;7.50;99.90;;;;;;5030817;28;20494;-84
2020/12/02 09:38:10;;;;;;;;;;;7.50;99.90;;;;;;5069124;28;19914;-84
2020/12/02 09:40:35;;;;;;;;;;;7.60;99.90;;;;;;5040841;28;20308;-85
2020/12/02 09:43:01;;;;;;;;;;;7.60;99.90;;;;;;5058803;28;19913;-84
2020/12/02 09:45:45;;;;;;;;;;;7.60;99.90;;;;;;5027650;28;20047;-84
2020/12/02 09:48:15;;;;;;;;;;;7.60;99.90;;;;;;5052877;28;19942;-84
2020/12/02 09:50:40;;;;;;;;;;;7.60;99.90;;;;;;5055410;28;19916;-84
2020/12/02 09:53:26;;;;;;;;;;;7.60;99.90;;;;;;5045166;28;20361;-84
2020/12/02 09:55:51;;;;;;;;;;;7.60;99.90;;;;;;5026418;28;19913;-84
2020/12/02 09:58:17;;;;;;;;;;;7.70;99.90;;;;;;5068856;28;19943;-83
2020/12/02 10:00:43;;;;;;;;;;;7.70;99.90;;;;;;5045384;28;19920;-84
2020/12/02 10:03:17;;;;;;;;;;;7.70;99.90;;;;;;5069932;28;20372;-85
2020/12/02 10:05:46;;;;;;;;;;;7.70;99.90;;;;;;5061855;28;19976;-84
2020/12/02 10:08:14;;;;;;;;;;;7.70;99.90;;;;;;5063137;28;19919;-84
2020/12/02 10:10:44;;;;;;;;;;;7.70;99.90;;;;;;5066952;28;19950;-85
2020/12/02 10:13:29;;;;;;;;;;;7.60;99.90;;;;;;5052253;28;19982;-84
2020/12/02 10:16:05;;;;;;;;;;;7.60;99.90;;;;;;5061823;28;19909;-84
2020/12/02 10:18:34;;;;;;;;;;;7.50;99.90;;;;;;5044523;28;19996;-84
2020/12/02 10:21:12;;;;;;;;;;;7.50;99.90;;;;;;5024100;28;19913;-84
2020/12/02 10:23:53;;;;;;;;;;;7.50;99.90;;;;;;5045333;28;19913;-83
2020/12/02 10:26:25;;;;;;;;;;;7.50;99.90;;;;;;5043592;28;19963;-83
2020/12/02 10:28:55;;;;;;;;;;;7.50;99.90;;;;;;5046794;28;20363;-84
2020/12/02 10:31:42;;;;;;;;;;;7.50;99.90;;;;;;5043151;28;21115;-83
2020/12/02 10:34:16;;;;;;;;;;;7.60;99.90;;;;;;5055416;28;19916;-83
2020/12/02 10:36:53;;;;;;;;;;;7.60;99.90;;;;;;5067461;28;19920;-83
2020/12/02 10:39:21;;;;;;;;;;;7.60;99.90;;;;;;5046151;28;19979;-83
2020/12/02 10:42:05;;;;;;;;;;;7.60;99.90;;;;;;5063701;28;19999;-83
2020/12/02 10:44:31;;;;;;;;;;;7.60;99.90;;;;;;5029195;28;20357;-83
2020/12/02 10:47:05;;;;;;;;;;;7.60;99.90;;;;;;5076938;28;20001;-83
2020/12/02 10:49:31;;;;;;;;;;;7.60;99.90;;;;;;5038084;28;19946;-83
2020/12/02 10:51:58;;;;;;;;;;;7.60;99.90;;;;;;5057793;28;19932;-83
2020/12/02 10:54:25;;;;;;;;;;;7.70;99.90;;;;;;5051736;28;19913;-83
2020/12/02 10:56:56;;;;;;;;;;;7.80;99.90;;;;;;5063451;28;19987;-83
2020/12/02 10:59:23;;;;;;;;;;;7.90;99.90;;;;;;5060268;28;19936;-82
2020/12/02 11:01:49;;;;;;;;;;;7.90;99.90;;;;;;5051231;28;20018;-83
2020/12/02 11:04:16;;;;;;;;;;;7.90;99.90;;;;;;5043338;28;19913;-82
2020/12/02 11:06:54;;;;;;;;;;;8.00;99.90;;;;;;5053899;28;19936;-83
2020/12/02 11:09:24;;;;;;;;;;;7.90;99.90;;;;;;5048539;28;20351;-83
2020/12/02 11:11:50;;;;;;;;;;;8.00;99.90;;;;;;5052749;28;19939;-83
2020/12/02 11:14:27;;;;;;;;;;;8.00;99.90;;;;;;5055736;28;19916;-83
2020/12/02 11:17:22;;;;;;;;;;;8.10;99.90;;;;;;5067626;28;20443;-83
2020/12/02 11:20:07;;;;;;;;;;;8.10;99.90;;;;;;5036002;28;20373;-83
2020/12/02 11:22:46;;;;;;;;;;;8.10;99.90;;;;;;5060102;28;20307;-83
2020/12/02 11:25:14;;;;;;;;;;;8.10;99.90;;;;;;5061793;28;19980;-82
2020/12/02 11:27:41;;;;;;;;;;;8.10;99.90;;;;;;5052219;28;19913;-83
2020/12/02 11:30:10;;;;;;;;;;;8.10;99.90;;;;;;5057822;28;19913;-83
2020/12/02 11:32:48;;;;;;;;;;;8.10;99.90;;;;;;5056741;28;19971;-84
2020/12/02 11:35:16;;;;;;;;;;;8.10;99.90;;;;;;5051772;28;19920;-83
2020/12/02 11:37:47;;;;;;;;;;;8.10;99.90;;;;;;5039243;28;19914;-83
2020/12/02 11:40:25;;;;;;;;;;;8.10;99.90;;;;;;5045955;28;20433;-82
2020/12/02 11:42:56;;;;;;;;;;;8.10;99.90;;;;;;5059805;28;20268;-83
2020/12/02 11:45:26;;;;;;;;;;;8.10;99.90;;;;;;5058119;28;19909;-83
2020/12/02 11:48:07;;;;;;;;;;;8.20;99.90;;;;;;5046729;28;19944;-83
2020/12/02 11:50:39;;;;;;;;;;;8.20;99.90;;;;;;5059613;28;20000;-84
2020/12/02 11:53:16;;;;;;;;;;;8.20;99.90;;;;;;5071666;28;19953;-83
2020/12/02 11:55:42;;;;;;;;;;;8.20;99.90;;;;;;5058954;28;19913;-84
2020/12/02 11:58:09;;;;;;;;;;;8.20;99.90;;;;;;5031311;28;19916;-84
2020/12/02 12:00:35;;;;;;;;;;;8.20;99.90;;;;;;5064066;28;19936;-84
2020/12/02 12:03:19;;;;;;;;;;;8.20;99.90;;;;;;5058604;28;19913;-84
2020/12/02 12:06:02;;;;;;;;;;;8.20;99.90;;;;;;5035855;28;19917;-84
2020/12/02 12:08:46;;;;;;;;;;;8.20;99.90;;;;;;5063873;28;19913;-84
2020/12/02 12:11:17;;;;;;;;;;;8.20;99.90;;;;;;5069021;28;19913;-84
2020/12/02 12:13:56;;;;;;;;;;;8.20;99.90;;;;;;5067381;28;19921;-84
2020/12/02 12:16:28;;;;;;;;;;;8.20;99.90;;;;;;5067613;28;19913;-84
2020/12/02 12:19:12;;;;;;;;;;;8.20;99.90;;;;;;5062358;28;20332;-83
2020/12/02 12:21:48;;;;;;;;;;;8.20;99.90;;;;;;5063738;28;19919;-84
2020/12/02 12:24:15;;;;;;;;;;;8.10;99.90;;;;;;5062710;28;19982;-83
2020/12/02 12:26:42;;;;;;;;;;;8.10;99.90;;;;;;5068240;28;19913;-84
2020/12/02 12:29:11;;;;;;;;;;;8.00;99.90;;;;;;5062413;28;20380;-84
2020/12/02 12:31:45;;;;;;;;;;;8.00;99.90;;;;;;5069042;28;19916;-83
2020/12/02 12:34:16;;;;;;;;;;;8.00;99.90;;;;;;5061820;28;19912;-83
2020/12/02 12:36:42;;;;;;;;;;;8.00;99.90;;;;;;5069478;28;19913;-84
2020/12/02 12:39:14;;;;;;;;;;;8.00;99.90;;;;;;5062003;28;19916;-84
2020/12/02 12:41:43;;;;;;;;;;;8.00;99.90;;;;;;5070324;28;19913;-84
2020/12/02 12:44:14;;;;;;;;;;;8.00;99.90;;;;;;5059929;28;19960;-83
2020/12/02 12:46:42;;;;;;;;;;;8.00;99.90;;;;;;5061882;28;19959;-84
2020/12/02 12:49:11;;;;;;;;;;;8.00;99.90;;;;;;5054439;28;19969;-84
2020/12/02 12:51:37;;;;;;;;;;;8.00;99.90;;;;;;5060348;28;20003;-84
2020/12/02 12:54:03;;;;;;;;;;;7.90;99.90;;;;;;5044185;28;19955;-83
2020/12/02 12:56:29;;;;;;;;;;;7.90;99.90;;;;;;5070917;28;19912;-83
2020/12/02 12:58:55;;;;;;;;;;;7.80;99.90;;;;;;5066725;28;19909;-84
2020/12/02 13:01:20;;;;;;;;;;;7.70;99.90;;;;;;5060504;28;19916;-84
2020/12/02 13:03:47;;;;;;;;;;;7.60;99.90;;;;;;5051768;28;19936;-84
2020/12/02 13:06:31;;;;;;;;;;;7.60;99.90;;;;;;5050708;28;19909;-84
2020/12/02 13:08:57;;;;;;;;;;;7.60;99.90;;;;;;5044763;28;19920;-83
2020/12/02 13:11:37;;;;;;;;;;;7.60;99.90;;;;;;5046432;28;19921;-83
2020/12/02 13:14:05;;;;;;;;;;;7.60;99.90;;;;;;5059645;28;19944;-84
2020/12/02 13:16:43;;;;;;;;;;;7.50;99.90;;;;;;5060236;28;19913;-84
2020/12/02 13:19:11;;;;;;;;;;;7.50;99.90;;;;;;5061618;28;20377;-84
2020/12/02 13:21:39;;;;;;;;;;;7.40;99.90;;;;;;5059129;28;19935;-83
2020/12/02 13:24:23;;;;;;;;;;;7.40;99.90;;;;;;5066378;28;19944;-82
2020/12/02 13:26:53;;;;;;;;;;;7.40;99.90;;;;;;5041560;28;19913;-83
2020/12/02 13:29:18;;;;;;;;;;;7.40;99.90;;;;;;5055741;28;19913;-84
2020/12/02 13:31:51;;;;;;;;;;;7.40;99.90;;;;;;5080968;28;20291;-84
2020/12/02 13:34:16;;;;;;;;;;;7.40;99.90;;;;;;5043857;28;19924;-84
2020/12/02 13:36:42;;;;;;;;;;;7.40;99.90;;;;;;5059277;28;19916;-85
2020/12/02 13:39:08;;;;;;;;;;;7.40;99.90;;;;;;5060662;28;19981;-84
2020/12/02 13:41:46;;;;;;;;;;;7.30;99.90;;;;;;5041914;28;20410;-85
2020/12/02 13:44:11;;;;;;;;;;;7.30;99.90;;;;;;5049679;28;19973;-85
2020/12/02 13:46:36;;;;;;;;;;;7.20;99.90;;;;;;5061710;28;19912;-85
2020/12/02 13:49:04;;;;;;;;;;;7.20;99.90;;;;;;5039622;28;19917;-84
2020/12/02 13:51:55;;;;;;;;;;;7.10;99.90;;;;;;5055781;28;19913;-85
2020/12/02 13:54:23;;;;;;;;;;;7.10;99.90;;;;;;5061779;28;20398;-83
2020/12/02 13:57:01;;;;;;;;;;;7.00;99.90;;;;;;5056331;28;20526;-84
2020/12/02 13:59:57;;;;;;;;;;;7.00;99.90;;;;;;5051203;28;19938;-84
2020/12/02 14:02:44;;;;;;;;;;;6.90;99.90;;;;;;5039326;28;19912;-84
2020/12/02 14:05:12;;;;;;;;;;;6.90;99.90;;;;;;5038066;28;19920;-85
2020/12/02 14:07:40;;;;;;;;;;;6.90;99.90;;;;;;5052715;28;19913;-84
2020/12/02 14:10:10;;;;;;;;;;;6.80;99.90;;;;;;5046233;28;19963;-84
2020/12/02 14:12:36;;;;;;;;;;;6.80;99.90;;;;;;5050788;28;19913;-84
2020/12/02 14:15:03;;;;;;;;;;;6.80;99.90;;;;;;5046605;28;20193;-83
2020/12/02 14:17:28;;;;;;;;;;;6.80;99.90;;;;;;5061669;28;19920;-85
2020/12/02 14:19:54;;;;;;;;;;;6.80;99.90;;;;;;5064675;28;20447;-84
2020/12/02 14:22:24;;;;;;;;;;;6.90;99.90;;;;;;5050743;28;19948;-84
2020/12/02 14:24:50;;;;;;;;;;;6.90;99.90;;;;;;5073925;28;19901;-86
2020/12/02 14:27:18;;;;;;;;;;;6.90;99.90;;;;;;5061866;28;20279;-85
2020/12/02 14:29:44;;;;;;;;;;;6.80;99.90;;;;;;5059262;28;20335;-85
2020/12/02 14:32:10;;;;;;;;;;;6.80;99.90;;;;;;5057201;28;19962;-85
2020/12/02 14:34:36;;;;;;;;;;;6.80;99.90;;;;;;5056882;28;19968;-84
2020/12/02 14:37:02;;;;;;;;;;;6.70;99.90;;;;;;5039208;28;19909;-84
2020/12/02 14:39:27;;;;;;;;;;;6.70;99.90;;;;;;5044431;28;19955;-84
2020/12/02 14:41:53;;;;;;;;;;;6.70;99.90;;;;;;5047940;28;20295;-84
2020/12/02 14:44:18;;;;;;;;;;;6.70;99.90;;;;;;5045412;28;20000;-85
2020/12/02 14:46:44;;;;;;;;;;;6.70;99.90;;;;;;5039483;28;19916;-83